Pagrindinis puslapis
METAR-TAF:

METAR-TAF

Oro uostai :

Haifa, Izraelis

platuma: 32-48N, ilguma: 035-02E, Aukštis: 8 m

Dabartinis oras

Ataskaita buvo paskelbta 1 valandą ir 8 minutes, ne 19:50 UTC
Vėjas 2 kt nuo kintamojo kryptimis
Temperatūra 14°C
Drėgmė 67%
Slėgis 1019 hPa
Matomumas 10 km arba daugiau
nėra debesų žemiau 1500 m ir nėra kamuolinių lietaus debesų

METAR: LLHA 151950Z VRB02KT CAVOK 14/08 Q1019 RMK BKN088

Laikas: 22:58 (20:58 UTC)

Prognozė

Ataskaita buvo paskelbta 3 valandos ir 53 minutes, ne 17:05 UTC
Prognozė galioja nuo 15 metu 18 UTC su 16 metu 18 UTC
Vėjas 3 kt nuo kintamojo kryptimis
Matomumas 10 km arba daugiau
nėra debesų žemiau 1500 m ir nėra kamuolinių lietaus debesų
Tapsmas
nuo 15 metu 20 UTC su 15 metu 22 UTC
Vėjas 6 kt iš Rytų/Pietryčių
Tapsmas
nuo 16 metu 08 UTC su 16 metu 11 UTC
Vėjas 10 kt iš Šiaurės

TAF: LLHA 151705Z 1518/1618 VRB03KT CAVOK BECMG 1520/1522 12006KT BECMG 1608/1611 01010KT TX19/1610Z TN11/1604Z

Orai ataskaitas ir orų prognozės (METAR, TAF).

turimą stotys yra geltonos ir raudonos taškus žemėlapyje.

Perkelti pele per norėdami pamatyti stoties vardą.

Tada spustelėkite, norėdami matyti oro stebėjimo ir prognozės.

Norėdami pakeisti žemėlapį: spustelėkite ant žalios mygtukų su juodo kryžiaus žemyn,; žalią mygtuką su brūkšneliu, jei norite nutolinti; arba žalių rodyklių gretimoms žemėlapius.


METAR-TAF: